sensor_id;sensor_type;location;lat;lon;timestamp;P1;durP1;ratioP1;P2;durP2;ratioP2
36383;SDS011;22418;51.210;6.976;2024-03-08T00:00:22;35.43;;;18.77;;
36383;SDS011;22418;51.210;6.976;2024-03-08T00:02:52;39.93;;;18.47;;
36383;SDS011;22418;51.210;6.976;2024-03-08T00:05:24;39.70;;;19.10;;
36383;SDS011;22418;51.210;6.976;2024-03-08T00:07:54;36.23;;;18.03;;
36383;SDS011;22418;51.210;6.976;2024-03-08T00:10:25;36.60;;;19.55;;
36383;SDS011;22418;51.210;6.976;2024-03-08T00:12:58;34.45;;;18.23;;
36383;SDS011;22418;51.210;6.976;2024-03-08T00:15:29;38.03;;;19.83;;
36383;SDS011;22418;51.210;6.976;2024-03-08T00:18:02;40.67;;;19.40;;
36383;SDS011;22418;51.210;6.976;2024-03-08T00:20:32;37.80;;;18.60;;
36383;SDS011;22418;51.210;6.976;2024-03-08T00:23:03;36.63;;;19.20;;
36383;SDS011;22418;51.210;6.976;2024-03-08T00:25:34;39.38;;;18.88;;
36383;SDS011;22418;51.210;6.976;2024-03-08T00:28:05;36.80;;;18.35;;
36383;SDS011;22418;51.210;6.976;2024-03-08T00:30:36;38.40;;;18.60;;
36383;SDS011;22418;51.210;6.976;2024-03-08T00:33:07;33.08;;;17.73;;
36383;SDS011;22418;51.210;6.976;2024-03-08T00:35:38;44.00;;;18.97;;
36383;SDS011;22418;51.210;6.976;2024-03-08T00:38:09;39.08;;;19.42;;
36383;SDS011;22418;51.210;6.976;2024-03-08T00:40:39;34.30;;;18.43;;
36383;SDS011;22418;51.210;6.976;2024-03-08T00:43:10;33.33;;;17.73;;
36383;SDS011;22418;51.210;6.976;2024-03-08T00:45:41;40.20;;;19.80;;
36383;SDS011;22418;51.210;6.976;2024-03-08T00:48:14;35.20;;;18.30;;
36383;SDS011;22418;51.210;6.976;2024-03-08T00:50:44;37.70;;;18.77;;
36383;SDS011;22418;51.210;6.976;2024-03-08T00:53:18;40.75;;;19.42;;
36383;SDS011;22418;51.210;6.976;2024-03-08T00:55:48;37.37;;;19.83;;
36383;SDS011;22418;51.210;6.976;2024-03-08T00:58:19;40.00;;;18.55;;
36383;SDS011;22418;51.210;6.976;2024-03-08T01:00:49;38.30;;;18.67;;
36383;SDS011;22418;51.210;6.976;2024-03-08T01:03:20;33.33;;;18.25;;
36383;SDS011;22418;51.210;6.976;2024-03-08T01:05:51;39.27;;;19.17;;
36383;SDS011;22418;51.210;6.976;2024-03-08T01:08:21;39.00;;;19.13;;
36383;SDS011;22418;51.210;6.976;2024-03-08T01:10:53;41.08;;;21.08;;
36383;SDS011;22418;51.210;6.976;2024-03-08T01:13:24;38.10;;;19.92;;
36383;SDS011;22418;51.210;6.976;2024-03-08T01:15:54;40.37;;;19.70;;
36383;SDS011;22418;51.210;6.976;2024-03-08T01:18:25;36.80;;;19.60;;
36383;SDS011;22418;51.210;6.976;2024-03-08T01:20:55;36.73;;;17.73;;
36383;SDS011;22418;51.210;6.976;2024-03-08T01:23:27;35.22;;;19.35;;
36383;SDS011;22418;51.210;6.976;2024-03-08T01:25:59;38.80;;;19.60;;
36383;SDS011;22418;51.210;6.976;2024-03-08T01:28:29;40.53;;;20.03;;
36383;SDS011;22418;51.210;6.976;2024-03-08T01:31:01;43.55;;;20.05;;
36383;SDS011;22418;51.210;6.976;2024-03-08T01:33:33;38.88;;;20.08;;
36383;SDS011;22418;51.210;6.976;2024-03-08T01:36:05;41.67;;;21.05;;
36383;SDS011;22418;51.210;6.976;2024-03-08T01:38:35;38.53;;;20.08;;
36383;SDS011;22418;51.210;6.976;2024-03-08T01:41:06;35.93;;;19.30;;
36383;SDS011;22418;51.210;6.976;2024-03-08T01:43:39;38.40;;;19.23;;
36383;SDS011;22418;51.210;6.976;2024-03-08T01:46:10;40.50;;;20.35;;
36383;SDS011;22418;51.210;6.976;2024-03-08T01:48:46;41.50;;;20.17;;
36383;SDS011;22418;51.210;6.976;2024-03-08T01:51:16;42.50;;;20.77;;
36383;SDS011;22418;51.210;6.976;2024-03-08T01:53:48;38.05;;;19.95;;
36383;SDS011;22418;51.210;6.976;2024-03-08T01:56:19;43.33;;;20.27;;
36383;SDS011;22418;51.210;6.976;2024-03-08T01:58:49;45.30;;;20.23;;
36383;SDS011;22418;51.210;6.976;2024-03-08T02:01:20;41.23;;;20.37;;
36383;SDS011;22418;51.210;6.976;2024-03-08T02:03:50;51.57;;;22.30;;
36383;SDS011;22418;51.210;6.976;2024-03-08T02:06:21;42.93;;;21.17;;
36383;SDS011;22418;51.210;6.976;2024-03-08T02:08:52;40.97;;;20.03;;
36383;SDS011;22418;51.210;6.976;2024-03-08T02:11:23;44.15;;;20.63;;
36383;SDS011;22418;51.210;6.976;2024-03-08T02:13:53;43.93;;;21.53;;
36383;SDS011;22418;51.210;6.976;2024-03-08T02:16:24;45.33;;;22.17;;
36383;SDS011;22418;51.210;6.976;2024-03-08T02:18:55;39.15;;;21.00;;
36383;SDS011;22418;51.210;6.976;2024-03-08T02:21:26;40.38;;;20.45;;
36383;SDS011;22418;51.210;6.976;2024-03-08T02:23:57;41.22;;;19.80;;
36383;SDS011;22418;51.210;6.976;2024-03-08T02:26:27;40.38;;;20.08;;
36383;SDS011;22418;51.210;6.976;2024-03-08T02:28:58;42.30;;;20.40;;
36383;SDS011;22418;51.210;6.976;2024-03-08T02:31:29;41.03;;;20.67;;
36383;SDS011;22418;51.210;6.976;2024-03-08T02:33:59;42.88;;;20.33;;
36383;SDS011;22418;51.210;6.976;2024-03-08T02:36:30;39.43;;;18.77;;
36383;SDS011;22418;51.210;6.976;2024-03-08T02:39:04;39.80;;;19.75;;
36383;SDS011;22418;51.210;6.976;2024-03-08T02:41:35;38.60;;;19.75;;
36383;SDS011;22418;51.210;6.976;2024-03-08T02:44:06;41.65;;;20.02;;
36383;SDS011;22418;51.210;6.976;2024-03-08T02:46:37;43.67;;;20.83;;
36383;SDS011;22418;51.210;6.976;2024-03-08T02:49:10;43.80;;;20.53;;
36383;SDS011;22418;51.210;6.976;2024-03-08T02:51:41;41.78;;;21.52;;
36383;SDS011;22418;51.210;6.976;2024-03-08T02:54:12;39.50;;;19.30;;
36383;SDS011;22418;51.210;6.976;2024-03-08T02:56:42;40.50;;;20.53;;
36383;SDS011;22418;51.210;6.976;2024-03-08T02:59:13;46.50;;;22.27;;
36383;SDS011;22418;51.210;6.976;2024-03-08T03:01:43;42.73;;;20.67;;
36383;SDS011;22418;51.210;6.976;2024-03-08T03:04:14;43.53;;;21.37;;
36383;SDS011;22418;51.210;6.976;2024-03-08T03:06:44;46.87;;;20.87;;
36383;SDS011;22418;51.210;6.976;2024-03-08T03:09:16;41.38;;;19.70;;
36383;SDS011;22418;51.210;6.976;2024-03-08T03:11:53;42.70;;;21.20;;
36383;SDS011;22418;51.210;6.976;2024-03-08T03:14:28;43.90;;;21.05;;
36383;SDS011;22418;51.210;6.976;2024-03-08T03:16:58;38.47;;;19.23;;
36383;SDS011;22418;51.210;6.976;2024-03-08T03:19:29;44.87;;;21.20;;
36383;SDS011;22418;51.210;6.976;2024-03-08T03:22:01;41.45;;;20.48;;
36383;SDS011;22418;51.210;6.976;2024-03-08T03:24:32;40.88;;;21.90;;
36383;SDS011;22418;51.210;6.976;2024-03-08T03:27:03;42.43;;;20.93;;
36383;SDS011;22418;51.210;6.976;2024-03-08T03:29:41;40.30;;;20.05;;
36383;SDS011;22418;51.210;6.976;2024-03-08T03:32:15;35.40;;;19.00;;
36383;SDS011;22418;51.210;6.976;2024-03-08T03:34:48;44.45;;;20.70;;
36383;SDS011;22418;51.210;6.976;2024-03-08T03:37:22;38.97;;;19.90;;
36383;SDS011;22418;51.210;6.976;2024-03-08T03:39:53;41.03;;;20.25;;
36383;SDS011;22418;51.210;6.976;2024-03-08T03:42:25;39.35;;;20.30;;
36383;SDS011;22418;51.210;6.976;2024-03-08T03:44:56;41.50;;;20.85;;
36383;SDS011;22418;51.210;6.976;2024-03-08T03:47:27;38.95;;;19.65;;
36383;SDS011;22418;51.210;6.976;2024-03-08T03:49:58;41.67;;;20.40;;
36383;SDS011;22418;51.210;6.976;2024-03-08T03:52:31;45.33;;;20.23;;
36383;SDS011;22418;51.210;6.976;2024-03-08T03:55:02;39.83;;;19.50;;
36383;SDS011;22418;51.210;6.976;2024-03-08T03:57:34;48.03;;;19.92;;
36383;SDS011;22418;51.210;6.976;2024-03-08T04:00:05;43.00;;;20.03;;
36383;SDS011;22418;51.210;6.976;2024-03-08T04:05:10;43.70;;;20.20;;
36383;SDS011;22418;51.210;6.976;2024-03-08T04:07:41;43.35;;;20.83;;
36383;SDS011;22418;51.210;6.976;2024-03-08T04:10:11;43.17;;;21.57;;
36383;SDS011;22418;51.210;6.976;2024-03-08T04:15:13;41.77;;;20.60;;
36383;SDS011;22418;51.210;6.976;2024-03-08T04:17:45;42.15;;;20.30;;
36383;SDS011;22418;51.210;6.976;2024-03-08T04:20:16;39.50;;;19.88;;
36383;SDS011;22418;51.210;6.976;2024-03-08T04:25:19;38.45;;;19.45;;
36383;SDS011;22418;51.210;6.976;2024-03-08T04:27:50;40.03;;;19.90;;
36383;SDS011;22418;51.210;6.976;2024-03-08T04:30:22;41.28;;;20.08;;
36383;SDS011;22418;51.210;6.976;2024-03-08T04:32:53;40.67;;;18.83;;
36383;SDS011;22418;51.210;6.976;2024-03-08T04:35:23;47.15;;;22.08;;
36383;SDS011;22418;51.210;6.976;2024-03-08T04:37:54;41.13;;;19.43;;
36383;SDS011;22418;51.210;6.976;2024-03-08T04:40:27;44.35;;;20.15;;
36383;SDS011;22418;51.210;6.976;2024-03-08T04:42:58;42.53;;;20.50;;
36383;SDS011;22418;51.210;6.976;2024-03-08T04:45:29;42.13;;;21.42;;
36383;SDS011;22418;51.210;6.976;2024-03-08T04:48:00;43.07;;;19.90;;
36383;SDS011;22418;51.210;6.976;2024-03-08T04:50:30;40.93;;;19.33;;
36383;SDS011;22418;51.210;6.976;2024-03-08T04:53:01;45.23;;;22.50;;
36383;SDS011;22418;51.210;6.976;2024-03-08T04:55:31;43.17;;;20.63;;
36383;SDS011;22418;51.210;6.976;2024-03-08T04:58:02;42.00;;;19.93;;
36383;SDS011;22418;51.210;6.976;2024-03-08T05:00:33;45.42;;;21.77;;
36383;SDS011;22418;51.210;6.976;2024-03-08T05:03:05;49.03;;;21.52;;
36383;SDS011;22418;51.210;6.976;2024-03-08T05:05:35;41.77;;;20.57;;
36383;SDS011;22418;51.210;6.976;2024-03-08T05:08:06;48.50;;;21.13;;
36383;SDS011;22418;51.210;6.976;2024-03-08T05:10:37;39.88;;;21.00;;
36383;SDS011;22418;51.210;6.976;2024-03-08T05:13:07;45.53;;;22.47;;
36383;SDS011;22418;51.210;6.976;2024-03-08T05:15:38;46.83;;;20.97;;
36383;SDS011;22418;51.210;6.976;2024-03-08T05:18:09;43.92;;;21.20;;
36383;SDS011;22418;51.210;6.976;2024-03-08T05:20:41;46.42;;;21.60;;
36383;SDS011;22418;51.210;6.976;2024-03-08T05:23:11;49.50;;;21.60;;
36383;SDS011;22418;51.210;6.976;2024-03-08T05:25:42;44.10;;;21.50;;
36383;SDS011;22418;51.210;6.976;2024-03-08T05:28:13;48.37;;;23.13;;
36383;SDS011;22418;51.210;6.976;2024-03-08T05:30:43;44.10;;;21.43;;
36383;SDS011;22418;51.210;6.976;2024-03-08T05:33:14;44.13;;;21.20;;
36383;SDS011;22418;51.210;6.976;2024-03-08T05:35:45;46.83;;;22.03;;
36383;SDS011;22418;51.210;6.976;2024-03-08T05:38:15;46.30;;;21.95;;
36383;SDS011;22418;51.210;6.976;2024-03-08T05:40:50;43.67;;;21.40;;
36383;SDS011;22418;51.210;6.976;2024-03-08T05:43:21;43.67;;;21.75;;
36383;SDS011;22418;51.210;6.976;2024-03-08T05:45:52;44.13;;;21.70;;
36383;SDS011;22418;51.210;6.976;2024-03-08T05:48:22;43.70;;;21.07;;
36383;SDS011;22418;51.210;6.976;2024-03-08T05:50:53;47.27;;;22.43;;
36383;SDS011;22418;51.210;6.976;2024-03-08T05:53:23;43.73;;;22.57;;
36383;SDS011;22418;51.210;6.976;2024-03-08T05:55:54;46.47;;;23.33;;
36383;SDS011;22418;51.210;6.976;2024-03-08T05:58:24;51.50;;;22.50;;
36383;SDS011;22418;51.210;6.976;2024-03-08T06:00:55;46.17;;;20.90;;
36383;SDS011;22418;51.210;6.976;2024-03-08T06:03:26;44.80;;;22.58;;
36383;SDS011;22418;51.210;6.976;2024-03-08T06:05:56;45.10;;;21.37;;
36383;SDS011;22418;51.210;6.976;2024-03-08T06:08:27;48.57;;;20.87;;
36383;SDS011;22418;51.210;6.976;2024-03-08T06:10:59;46.35;;;22.17;;
36383;SDS011;22418;51.210;6.976;2024-03-08T06:13:32;45.40;;;22.60;;
36383;SDS011;22418;51.210;6.976;2024-03-08T06:16:03;47.20;;;22.77;;
36383;SDS011;22418;51.210;6.976;2024-03-08T06:18:34;47.72;;;21.88;;
36383;SDS011;22418;51.210;6.976;2024-03-08T06:21:09;47.97;;;22.52;;
36383;SDS011;22418;51.210;6.976;2024-03-08T06:23:41;43.33;;;21.75;;
36383;SDS011;22418;51.210;6.976;2024-03-08T06:26:12;46.53;;;21.70;;
36383;SDS011;22418;51.210;6.976;2024-03-08T06:28:42;49.45;;;23.02;;
36383;SDS011;22418;51.210;6.976;2024-03-08T06:31:13;47.23;;;24.40;;
36383;SDS011;22418;51.210;6.976;2024-03-08T06:33:44;47.65;;;22.77;;
36383;SDS011;22418;51.210;6.976;2024-03-08T06:36:18;48.10;;;22.23;;
36383;SDS011;22418;51.210;6.976;2024-03-08T06:38:51;48.85;;;22.17;;
36383;SDS011;22418;51.210;6.976;2024-03-08T06:41:22;52.10;;;22.97;;
36383;SDS011;22418;51.210;6.976;2024-03-08T06:43:52;47.27;;;22.87;;
36383;SDS011;22418;51.210;6.976;2024-03-08T06:46:27;48.35;;;22.42;;
36383;SDS011;22418;51.210;6.976;2024-03-08T06:48:58;45.90;;;22.20;;
36383;SDS011;22418;51.210;6.976;2024-03-08T06:51:28;46.60;;;22.83;;
36383;SDS011;22418;51.210;6.976;2024-03-08T06:53:59;48.50;;;23.03;;
36383;SDS011;22418;51.210;6.976;2024-03-08T06:56:30;44.47;;;21.48;;
36383;SDS011;22418;51.210;6.976;2024-03-08T06:59:00;45.63;;;21.35;;
36383;SDS011;22418;51.210;6.976;2024-03-08T07:01:33;46.85;;;22.90;;
36383;SDS011;22418;51.210;6.976;2024-03-08T07:04:06;45.45;;;22.08;;
36383;SDS011;22418;51.210;6.976;2024-03-08T07:06:38;46.10;;;21.50;;
36383;SDS011;22418;51.210;6.976;2024-03-08T07:09:08;52.17;;;22.70;;
36383;SDS011;22418;51.210;6.976;2024-03-08T07:11:39;46.07;;;23.37;;
36383;SDS011;22418;51.210;6.976;2024-03-08T07:14:10;45.10;;;21.70;;
36383;SDS011;22418;51.210;6.976;2024-03-08T07:16:41;48.03;;;21.87;;
36383;SDS011;22418;51.210;6.976;2024-03-08T07:19:11;42.80;;;21.93;;
36383;SDS011;22418;51.210;6.976;2024-03-08T07:21:44;44.93;;;21.20;;
36383;SDS011;22418;51.210;6.976;2024-03-08T07:24:15;48.15;;;22.65;;
36383;SDS011;22418;51.210;6.976;2024-03-08T07:26:48;46.83;;;20.35;;
36383;SDS011;22418;51.210;6.976;2024-03-08T07:29:20;47.65;;;21.60;;
36383;SDS011;22418;51.210;6.976;2024-03-08T07:31:50;43.17;;;22.02;;
36383;SDS011;22418;51.210;6.976;2024-03-08T07:34:32;45.47;;;21.75;;
36383;SDS011;22418;51.210;6.976;2024-03-08T07:37:03;47.33;;;22.00;;
36383;SDS011;22418;51.210;6.976;2024-03-08T07:39:34;43.47;;;22.53;;
36383;SDS011;22418;51.210;6.976;2024-03-08T07:42:04;44.07;;;21.83;;
36383;SDS011;22418;51.210;6.976;2024-03-08T07:44:35;40.42;;;20.08;;
36383;SDS011;22418;51.210;6.976;2024-03-08T07:47:06;41.97;;;21.57;;
36383;SDS011;22418;51.210;6.976;2024-03-08T07:49:39;41.85;;;20.52;;
36383;SDS011;22418;51.210;6.976;2024-03-08T07:52:09;47.63;;;22.30;;
36383;SDS011;22418;51.210;6.976;2024-03-08T07:54:45;41.97;;;20.75;;
36383;SDS011;22418;51.210;6.976;2024-03-08T07:57:16;37.10;;;19.37;;
36383;SDS011;22418;51.210;6.976;2024-03-08T07:59:46;39.13;;;19.77;;
36383;SDS011;22418;51.210;6.976;2024-03-08T08:02:17;40.60;;;20.53;;
36383;SDS011;22418;51.210;6.976;2024-03-08T08:04:48;38.97;;;20.08;;
36383;SDS011;22418;51.210;6.976;2024-03-08T08:07:19;37.47;;;20.47;;
36383;SDS011;22418;51.210;6.976;2024-03-08T08:09:49;38.13;;;20.73;;
36383;SDS011;22418;51.210;6.976;2024-03-08T08:12:20;37.10;;;19.43;;
36383;SDS011;22418;51.210;6.976;2024-03-08T08:14:50;38.03;;;19.30;;
36383;SDS011;22418;51.210;6.976;2024-03-08T08:17:21;36.83;;;19.27;;
36383;SDS011;22418;51.210;6.976;2024-03-08T08:19:52;35.30;;;18.67;;
36383;SDS011;22418;51.210;6.976;2024-03-08T08:22:22;35.47;;;17.67;;
36383;SDS011;22418;51.210;6.976;2024-03-08T08:24:53;35.37;;;18.00;;
36383;SDS011;22418;51.210;6.976;2024-03-08T08:27:23;37.07;;;19.23;;
36383;SDS011;22418;51.210;6.976;2024-03-08T08:29:56;33.00;;;18.73;;
36383;SDS011;22418;51.210;6.976;2024-03-08T08:32:26;33.10;;;18.53;;
36383;SDS011;22418;51.210;6.976;2024-03-08T08:34:57;37.97;;;19.53;;
36383;SDS011;22418;51.210;6.976;2024-03-08T08:37:30;34.30;;;17.38;;
36383;SDS011;22418;51.210;6.976;2024-03-08T08:40:01;34.47;;;17.65;;
36383;SDS011;22418;51.210;6.976;2024-03-08T08:42:36;33.97;;;18.05;;
36383;SDS011;22418;51.210;6.976;2024-03-08T08:45:07;32.95;;;17.58;;
36383;SDS011;22418;51.210;6.976;2024-03-08T08:47:39;32.22;;;17.60;;
36383;SDS011;22418;51.210;6.976;2024-03-08T08:50:12;35.53;;;18.85;;
36383;SDS011;22418;51.210;6.976;2024-03-08T08:52:43;33.60;;;17.98;;
36383;SDS011;22418;51.210;6.976;2024-03-08T08:55:14;31.80;;;17.70;;
36383;SDS011;22418;51.210;6.976;2024-03-08T08:57:44;35.37;;;17.53;;
36383;SDS011;22418;51.210;6.976;2024-03-08T09:00:15;29.83;;;16.40;;
36383;SDS011;22418;51.210;6.976;2024-03-08T09:02:46;32.30;;;16.43;;
36383;SDS011;22418;51.210;6.976;2024-03-08T09:05:17;30.08;;;16.48;;
36383;SDS011;22418;51.210;6.976;2024-03-08T09:07:48;29.80;;;16.37;;
36383;SDS011;22418;51.210;6.976;2024-03-08T09:10:18;34.93;;;16.57;;
36383;SDS011;22418;51.210;6.976;2024-03-08T09:12:49;29.40;;;15.47;;
36383;SDS011;22418;51.210;6.976;2024-03-08T09:15:19;28.27;;;16.50;;
36383;SDS011;22418;51.210;6.976;2024-03-08T09:17:50;31.27;;;16.08;;
36383;SDS011;22418;51.210;6.976;2024-03-08T09:20:21;32.37;;;16.97;;
36383;SDS011;22418;51.210;6.976;2024-03-08T09:22:51;31.17;;;17.43;;
36383;SDS011;22418;51.210;6.976;2024-03-08T09:25:22;34.90;;;17.87;;
36383;SDS011;22418;51.210;6.976;2024-03-08T09:27:52;29.50;;;14.90;;
36383;SDS011;22418;51.210;6.976;2024-03-08T09:32:54;41.60;;;16.23;;
36383;SDS011;22418;51.210;6.976;2024-03-08T09:35:25;35.43;;;16.83;;
36383;SDS011;22418;51.210;6.976;2024-03-08T09:37:56;29.92;;;17.05;;
36383;SDS011;22418;51.210;6.976;2024-03-08T09:40:26;29.10;;;16.20;;
36383;SDS011;22418;51.210;6.976;2024-03-08T09:42:57;31.08;;;16.90;;
36383;SDS011;22418;51.210;6.976;2024-03-08T09:45:30;35.63;;;17.40;;
36383;SDS011;22418;51.210;6.976;2024-03-08T09:48:05;30.95;;;16.33;;
36383;SDS011;22418;51.210;6.976;2024-03-08T09:50:42;30.33;;;16.35;;
36383;SDS011;22418;51.210;6.976;2024-03-08T09:53:13;31.77;;;16.23;;
36383;SDS011;22418;51.210;6.976;2024-03-08T09:55:44;30.07;;;16.20;;
36383;SDS011;22418;51.210;6.976;2024-03-08T09:58:15;27.55;;;15.43;;
36383;SDS011;22418;51.210;6.976;2024-03-08T10:00:52;31.63;;;16.30;;
36383;SDS011;22418;51.210;6.976;2024-03-08T10:03:23;26.00;;;15.17;;
36383;SDS011;22418;51.210;6.976;2024-03-08T10:05:56;30.20;;;16.20;;
36383;SDS011;22418;51.210;6.976;2024-03-08T10:08:30;32.85;;;15.65;;
36383;SDS011;22418;51.210;6.976;2024-03-08T10:11:00;26.67;;;14.57;;
36383;SDS011;22418;51.210;6.976;2024-03-08T10:13:31;29.58;;;15.25;;
36383;SDS011;22418;51.210;6.976;2024-03-08T10:16:02;24.38;;;13.82;;
36383;SDS011;22418;51.210;6.976;2024-03-08T10:18:35;23.17;;;13.75;;
36383;SDS011;22418;51.210;6.976;2024-03-08T10:21:06;30.83;;;13.67;;
36383;SDS011;22418;51.210;6.976;2024-03-08T10:23:39;28.25;;;13.70;;
36383;SDS011;22418;51.210;6.976;2024-03-08T10:26:14;26.58;;;12.82;;
36383;SDS011;22418;51.210;6.976;2024-03-08T10:28:46;25.48;;;13.15;;
36383;SDS011;22418;51.210;6.976;2024-03-08T10:31:18;26.95;;;12.98;;
36383;SDS011;22418;51.210;6.976;2024-03-08T10:33:50;23.45;;;12.23;;
36383;SDS011;22418;51.210;6.976;2024-03-08T10:36:20;21.23;;;11.70;;
36383;SDS011;22418;51.210;6.976;2024-03-08T10:38:51;26.83;;;13.90;;
36383;SDS011;22418;51.210;6.976;2024-03-08T10:41:24;24.33;;;12.60;;
36383;SDS011;22418;51.210;6.976;2024-03-08T10:44:02;26.83;;;13.40;;
36383;SDS011;22418;51.210;6.976;2024-03-08T10:49:44;20.35;;;11.85;;
36383;SDS011;22418;51.210;6.976;2024-03-08T10:52:24;26.75;;;12.55;;
36383;SDS011;22418;51.210;6.976;2024-03-08T10:54:55;26.50;;;13.43;;
36383;SDS011;22418;51.210;6.976;2024-03-08T10:57:27;24.02;;;13.38;;
36383;SDS011;22418;51.210;6.976;2024-03-08T10:59:58;23.17;;;12.40;;
36383;SDS011;22418;51.210;6.976;2024-03-08T11:02:28;22.58;;;12.70;;
36383;SDS011;22418;51.210;6.976;2024-03-08T11:05:00;21.05;;;11.75;;
36383;SDS011;22418;51.210;6.976;2024-03-08T11:07:34;21.10;;;12.18;;
36383;SDS011;22418;51.210;6.976;2024-03-08T11:10:05;23.83;;;12.38;;
36383;SDS011;22418;51.210;6.976;2024-03-08T11:12:48;23.20;;;12.70;;
36383;SDS011;22418;51.210;6.976;2024-03-08T11:15:19;24.00;;;12.93;;
36383;SDS011;22418;51.210;6.976;2024-03-08T11:17:50;25.50;;;12.27;;
36383;SDS011;22418;51.210;6.976;2024-03-08T11:20:23;23.35;;;13.07;;
36383;SDS011;22418;51.210;6.976;2024-03-08T11:22:54;22.85;;;11.75;;
36383;SDS011;22418;51.210;6.976;2024-03-08T11:25:37;24.67;;;12.00;;
36383;SDS011;22418;51.210;6.976;2024-03-08T11:33:30;21.38;;;11.95;;
36383;SDS011;22418;51.210;6.976;2024-03-08T11:36:08;23.13;;;12.52;;
36383;SDS011;22418;51.210;6.976;2024-03-08T11:38:44;24.25;;;11.68;;
36383;SDS011;22418;51.210;6.976;2024-03-08T11:41:20;21.88;;;11.18;;
36383;SDS011;22418;51.210;6.976;2024-03-08T11:44:03;21.50;;;12.20;;
36383;SDS011;22418;51.210;6.976;2024-03-08T11:46:38;26.45;;;11.32;;
36383;SDS011;22418;51.210;6.976;2024-03-08T11:49:12;18.98;;;11.15;;
36383;SDS011;22418;51.210;6.976;2024-03-08T11:51:43;21.70;;;10.60;;
36383;SDS011;22418;51.210;6.976;2024-03-08T11:54:14;19.87;;;10.90;;
36383;SDS011;22418;51.210;6.976;2024-03-08T11:56:45;18.80;;;10.13;;
36383;SDS011;22418;51.210;6.976;2024-03-08T11:59:18;20.00;;;10.90;;
36383;SDS011;22418;51.210;6.976;2024-03-08T12:02:01;21.33;;;10.63;;
36383;SDS011;22418;51.210;6.976;2024-03-08T12:04:33;24.48;;;12.02;;
36383;SDS011;22418;51.210;6.976;2024-03-08T12:07:05;22.63;;;11.00;;
36383;SDS011;22418;51.210;6.976;2024-03-08T12:09:41;19.63;;;11.18;;
36383;SDS011;22418;51.210;6.976;2024-03-08T12:12:16;19.80;;;11.50;;
36383;SDS011;22418;51.210;6.976;2024-03-08T12:14:47;21.23;;;11.50;;
36383;SDS011;22418;51.210;6.976;2024-03-08T12:17:17;19.80;;;11.57;;
36383;SDS011;22418;51.210;6.976;2024-03-08T12:19:48;22.07;;;11.37;;
36383;SDS011;22418;51.210;6.976;2024-03-08T12:22:18;18.07;;;10.57;;
36383;SDS011;22418;51.210;6.976;2024-03-08T12:25:04;20.88;;;10.50;;
36383;SDS011;22418;51.210;6.976;2024-03-08T12:32:53;20.67;;;10.80;;
36383;SDS011;22418;51.210;6.976;2024-03-08T12:35:29;20.02;;;11.57;;
36383;SDS011;22418;51.210;6.976;2024-03-08T12:38:01;19.90;;;11.10;;
36383;SDS011;22418;51.210;6.976;2024-03-08T12:40:32;18.63;;;10.43;;
36383;SDS011;22418;51.210;6.976;2024-03-08T12:43:04;17.02;;;9.95;;
36383;SDS011;22418;51.210;6.976;2024-03-08T12:45:36;21.63;;;10.52;;
36383;SDS011;22418;51.210;6.976;2024-03-08T12:48:11;19.07;;;10.17;;
36383;SDS011;22418;51.210;6.976;2024-03-08T12:50:45;19.13;;;10.18;;
36383;SDS011;22418;51.210;6.976;2024-03-08T12:53:17;20.58;;;9.98;;
36383;SDS011;22418;51.210;6.976;2024-03-08T12:55:48;21.50;;;9.43;;
36383;SDS011;22418;51.210;6.976;2024-03-08T12:58:19;19.10;;;10.20;;
36383;SDS011;22418;51.210;6.976;2024-03-08T13:00:50;19.95;;;9.68;;
36383;SDS011;22418;51.210;6.976;2024-03-08T13:03:20;22.50;;;10.00;;
36383;SDS011;22418;51.210;6.976;2024-03-08T13:05:52;19.80;;;10.90;;
36383;SDS011;22418;51.210;6.976;2024-03-08T13:08:23;20.93;;;9.93;;
36383;SDS011;22418;51.210;6.976;2024-03-08T13:10:57;17.85;;;9.82;;
36383;SDS011;22418;51.210;6.976;2024-03-08T13:13:29;20.30;;;10.38;;
36383;SDS011;22418;51.210;6.976;2024-03-08T13:15:59;19.03;;;9.43;;
36383;SDS011;22418;51.210;6.976;2024-03-08T13:18:31;19.45;;;10.15;;
36383;SDS011;22418;51.210;6.976;2024-03-08T13:21:01;18.77;;;9.63;;
36383;SDS011;22418;51.210;6.976;2024-03-08T13:23:37;19.00;;;8.25;;
36383;SDS011;22418;51.210;6.976;2024-03-08T13:26:10;19.00;;;9.65;;
36383;SDS011;22418;51.210;6.976;2024-03-08T13:28:45;17.23;;;9.23;;
36383;SDS011;22418;51.210;6.976;2024-03-08T13:31:16;16.13;;;8.45;;
36383;SDS011;22418;51.210;6.976;2024-03-08T13:33:47;19.83;;;10.30;;
36383;SDS011;22418;51.210;6.976;2024-03-08T13:36:21;20.20;;;9.98;;
36383;SDS011;22418;51.210;6.976;2024-03-08T13:38:54;19.05;;;9.60;;
36383;SDS011;22418;51.210;6.976;2024-03-08T13:41:26;19.13;;;9.82;;
36383;SDS011;22418;51.210;6.976;2024-03-08T13:43:56;17.93;;;10.30;;
36383;SDS011;22418;51.210;6.976;2024-03-08T13:46:27;19.77;;;10.55;;
36383;SDS011;22418;51.210;6.976;2024-03-08T13:48:59;21.53;;;11.33;;
36383;SDS011;22418;51.210;6.976;2024-03-08T13:51:36;19.02;;;10.68;;
36383;SDS011;22418;51.210;6.976;2024-03-08T13:54:06;22.20;;;12.10;;
36383;SDS011;22418;51.210;6.976;2024-03-08T13:56:37;20.90;;;10.80;;
36383;SDS011;22418;51.210;6.976;2024-03-08T13:59:08;19.17;;;10.87;;
36383;SDS011;22418;51.210;6.976;2024-03-08T14:01:39;20.52;;;11.18;;
36383;SDS011;22418;51.210;6.976;2024-03-08T14:04:10;21.60;;;11.57;;
36383;SDS011;22418;51.210;6.976;2024-03-08T14:06:42;19.05;;;11.00;;
36383;SDS011;22418;51.210;6.976;2024-03-08T14:09:15;21.42;;;11.25;;
36383;SDS011;22418;51.210;6.976;2024-03-08T14:11:49;22.23;;;12.05;;
36383;SDS011;22418;51.210;6.976;2024-03-08T14:14:20;20.97;;;11.67;;
36383;SDS011;22418;51.210;6.976;2024-03-08T14:16:53;20.08;;;11.68;;
36383;SDS011;22418;51.210;6.976;2024-03-08T14:19:28;20.73;;;12.00;;
36383;SDS011;22418;51.210;6.976;2024-03-08T14:22:00;22.50;;;12.57;;
36383;SDS011;22418;51.210;6.976;2024-03-08T14:24:34;21.30;;;12.05;;
36383;SDS011;22418;51.210;6.976;2024-03-08T14:27:05;26.05;;;12.80;;
36383;SDS011;22418;51.210;6.976;2024-03-08T14:29:38;22.35;;;12.38;;
36383;SDS011;22418;51.210;6.976;2024-03-08T14:32:09;24.37;;;12.67;;
36383;SDS011;22418;51.210;6.976;2024-03-08T14:34:40;24.73;;;13.48;;
36383;SDS011;22418;51.210;6.976;2024-03-08T14:37:10;24.77;;;13.10;;
36383;SDS011;22418;51.210;6.976;2024-03-08T14:39:41;21.00;;;12.02;;
36383;SDS011;22418;51.210;6.976;2024-03-08T14:42:12;22.40;;;12.80;;
36383;SDS011;22418;51.210;6.976;2024-03-08T14:44:44;23.58;;;13.07;;
36383;SDS011;22418;51.210;6.976;2024-03-08T14:47:18;20.63;;;12.57;;
36383;SDS011;22418;51.210;6.976;2024-03-08T14:49:48;23.17;;;13.13;;
36383;SDS011;22418;51.210;6.976;2024-03-08T14:52:19;25.40;;;13.90;;
36383;SDS011;22418;51.210;6.976;2024-03-08T14:54:59;27.35;;;13.25;;
36383;SDS011;22418;51.210;6.976;2024-03-08T14:57:33;28.27;;;14.70;;
36383;SDS011;22418;51.210;6.976;2024-03-08T15:00:03;25.03;;;14.30;;
36383;SDS011;22418;51.210;6.976;2024-03-08T15:02:37;26.90;;;13.77;;
36383;SDS011;22418;51.210;6.976;2024-03-08T15:05:09;27.25;;;13.80;;
36383;SDS011;22418;51.210;6.976;2024-03-08T15:07:41;25.13;;;13.48;;
36383;SDS011;22418;51.210;6.976;2024-03-08T15:10:12;27.63;;;14.23;;